Gulf Dawn — WCY2448 — position and weather

sailwx.info

Track history (hours):
 
Tides and Currents Weather Stations Pressure Air Temp Water Temp Dewpoint Dewpoint Depression Visibility Wind Speed Wind Dir Waves Ship Positions

Gulf Dawn

Owner: CHARPENTIER, KENNETH G, GRETNA, LA. More information available from US FCC via Universal Licensing System and Coast Guard Vessel Documentation Center.

Last reported at 2017-Nov-18 23:05 UTC. Time now 2017-Nov-19 18:20 UTC.
Position N 41°13' W 072°48'.

Length 26 m.

MMSI: 367005130.

Date/timePositionNaut miles runAvg speedWind from/ knotsBaromVisibWave heightAir tempDewpointWater temp
2017-Nov-18 23:05N 41°13' W 072°48'1 5.4
2017-Nov-18 22:59N 41°13' W 072°47'2 5.2
2017-Nov-18 22:30N 41°13' W 072°44'3 5.0
2017-Nov-18 22:00N 41°14' W 072°40'2 4.8
2017-Nov-18 21:30N 41°14' W 072°37'2 4.2
2017-Nov-18 21:00N 41°15' W 072°35'1 2.3
2017-Nov-18 20:30N 41°16' W 072°34'0 0.1
2017-Nov-18 20:00N 41°16' W 072°34'2 3.0
2017-Nov-18 19:30N 41°15' W 072°35'5 9.4
2017-Nov-18 19:00N 41°13' W 072°42'7 0.7
2017-Nov-18 09:23N 41°11' W 072°50'3 8.2
2017-Nov-18 09:01N 41°12' W 072°47'4 8.0
2017-Nov-18 08:30N 41°14' W 072°41'4 7.7
2017-Nov-18 08:00N 41°14' W 072°36'2 4.6
2017-Nov-18 07:30N 41°16' W 072°34'0 0.0
2017-Nov-18 07:00N 41°16' W 072°34'0 0.0
2017-Nov-18 06:30N 41°16' W 072°34'0 0.0
2017-Nov-18 06:00N 41°16' W 072°34'0 0.0
2017-Nov-18 05:30N 41°16' W 072°34'0 0.0
2017-Nov-18 05:00N 41°16' W 072°34'0 0.0
2017-Nov-18 04:30N 41°16' W 072°34'0 0.0
2017-Nov-18 04:00N 41°16' W 072°34'0 0.0
2017-Nov-18 03:30N 41°16' W 072°34'0 0.0
2017-Nov-18 03:00N 41°16' W 072°34'0 0.0
2017-Nov-18 02:30N 41°16' W 072°34'0 0.0
2017-Nov-18 02:00N 41°16' W 072°34'0 0.0
2017-Nov-18 01:30N 41°16' W 072°34'0 0.0
2017-Nov-18 01:00N 41°16' W 072°34'0 0.0
2017-Nov-18 00:30N 41°16' W 072°34'0 0.0
2017-Nov-18 00:00N 41°16' W 072°34'0 0.0
2017-Nov-17 23:30N 41°16' W 072°34'0 0.0
2017-Nov-17 23:00N 41°16' W 072°34'0 0.0
2017-Nov-17 22:29N 41°16' W 072°34'0 0.0
2017-Nov-17 21:58N 41°16' W 072°34'0 0.0
2017-Nov-17 21:27N 41°16' W 072°34'0 0.0
2017-Nov-17 21:00N 41°16' W 072°34'0 0.0
2017-Nov-17 20:30N 41°16' W 072°34'0 0.0
2017-Nov-17 19:59N 41°16' W 072°34'0 0.0
2017-Nov-17 19:30N 41°16' W 072°34'0 0.4
2017-Nov-17 19:00N 41°16' W 072°34'0 0.4
2017-Nov-17 18:30N 41°16' W 072°34'0 0.0
2017-Nov-17 17:58N 41°16' W 072°34'0 0.0
2017-Nov-17 17:30N 41°16' W 072°34'0 0.0
2017-Nov-17 17:00N 41°16' W 072°34'0 0.0
2017-Nov-17 16:29N 41°16' W 072°34'0 0.0
2017-Nov-17 15:55N 41°16' W 072°34'0 0.0
2017-Nov-17 15:30N 41°16' W 072°34'0 0.0
2017-Nov-17 14:59N 41°16' W 072°34'0 0.0
2017-Nov-17 14:29N 41°16' W 072°34'0 0.0
2017-Nov-17 13:58N 41°16' W 072°34'0 0.0
2017-Nov-17 13:28N 41°16' W 072°34'0 0.0
2017-Nov-17 13:00N 41°16' W 072°34'0 0.0
2017-Nov-17 12:30N 41°16' W 072°34'0 0.0
2017-Nov-17 12:00N 41°16' W 072°34'0 0.0
2017-Nov-17 11:30N 41°16' W 072°34'0 0.0
2017-Nov-17 11:00N 41°16' W 072°34'0 0.0
2017-Nov-17 10:30N 41°16' W 072°34'0 0.0
2017-Nov-17 10:00N 41°16' W 072°34'0 0.0
2017-Nov-17 09:30N 41°16' W 072°34'0 0.0
2017-Nov-17 09:00N 41°16' W 072°34'0 0.0
2017-Nov-17 08:30N 41°16' W 072°34'0 0.3
2017-Nov-17 08:00N 41°16' W 072°34'0 0.3
2017-Nov-17 07:30N 41°16' W 072°34'0 0.0
2017-Nov-17 07:00N 41°16' W 072°34'0 0.0
2017-Nov-17 06:30N 41°16' W 072°34'0 0.0
2017-Nov-17 05:59N 41°16' W 072°34'0 0.0
2017-Nov-17 05:30N 41°16' W 072°34'0 0.0
2017-Nov-17 05:00N 41°16' W 072°34'0 0.0
2017-Nov-17 04:30N 41°16' W 072°34'0 0.0
2017-Nov-17 04:00N 41°16' W 072°34'0 0.0
2017-Nov-17 03:30N 41°16' W 072°34'0 0.0
2017-Nov-17 03:00N 41°16' W 072°34'0 0.2
2017-Nov-17 02:30N 41°16' W 072°34'0 0.2
2017-Nov-17 02:00N 41°16' W 072°34'0 0.0
2017-Nov-17 01:30N 41°16' W 072°34'0 0.0
2017-Nov-17 01:00N 41°16' W 072°34'0 0.0
2017-Nov-17 00:30N 41°16' W 072°34'0 0.0
2017-Nov-17 00:00N 41°16' W 072°34'0 0.0
2017-Nov-16 23:30N 41°16' W 072°34'0 0.0
2017-Nov-16 23:00N 41°16' W 072°34'0 0.0
2017-Nov-16 22:30N 41°16' W 072°34'0 0.1
2017-Nov-16 22:00N 41°16' W 072°34'1 1.2
2017-Nov-16 21:30N 41°15' W 072°34'0 0.7
2017-Nov-16 21:00N 41°15' W 072°34'0 0.4
2017-Nov-16 20:30N 41°16' W 072°34'1 2.5
2017-Nov-16 20:00N 41°15' W 072°35'1 1.8
2017-Nov-16 19:30N 41°15' W 072°34'0 0.6
2017-Nov-16 19:00N 41°15' W 072°34'3 5.2
2017-Nov-16 18:30N 41°14' W 072°37'7 0.3
2017-Nov-15 16:50N 41°13' W 072°46'2 5.1
2017-Nov-15 16:30N 41°13' W 072°44'2 5.0
2017-Nov-15 16:00N 41°14' W 072°41'3 5.2
2017-Nov-15 15:31N 41°14' W 072°37'3 5.2
2017-Nov-15 15:00N 41°16' W 072°34'0 0.5
2017-Nov-15 14:30N 41°16' W 072°34'0 0.2
2017-Nov-15 14:00N 41°16' W 072°34'0 0.0
2017-Nov-15 06:58N 41°16' W 072°34'0 0.0
2017-Nov-15 06:30N 41°16' W 072°34'0 0.0
2017-Nov-15 06:00N 41°16' W 072°34'0 0.0
2017-Nov-15 05:30N 41°16' W 072°34'0 0.0
2017-Nov-15 05:00N 41°16' W 072°34'0 0.2
2017-Nov-15 04:30N 41°16' W 072°34'0 0.3
2017-Nov-15 04:00N 41°16' W 072°34'1 1.6
2017-Nov-15 03:30N 41°15' W 072°34'2 4.9
2017-Nov-15 03:00N 41°14' W 072°37'2 4.8
2017-Nov-15 02:30N 41°14' W 072°41'2 4.5
2017-Nov-15 02:00N 41°13' W 072°44'0 0.0
2017-Nov-14 11:45N 41°13' W 072°43'2 8.2
2017-Nov-14 11:30N 41°14' W 072°41'4 8.0
2017-Nov-14 10:59N 41°15' W 072°36'1 2.7
2017-Nov-14 10:30N 41°16' W 072°34'0 0.0
2017-Nov-14 10:00N 41°16' W 072°34'0 0.0
2017-Nov-14 09:30N 41°16' W 072°34'0 0.0
2017-Nov-14 09:00N 41°16' W 072°34'0 0.0
2017-Nov-14 08:30N 41°16' W 072°34'0 0.0
2017-Nov-14 08:00N 41°16' W 072°34'0 0.0
2017-Nov-14 07:30N 41°16' W 072°34'0 0.0
2017-Nov-14 07:00N 41°16' W 072°34'0 0.0
2017-Nov-14 06:30N 41°16' W 072°34'0 0.0
2017-Nov-14 06:00N 41°16' W 072°34'0 0.0
2017-Nov-14 05:30N 41°16' W 072°34'0 0.0
2017-Nov-14 05:00N 41°16' W 072°34'0 0.2
2017-Nov-14 04:30N 41°16' W 072°34'1 1.7
2017-Nov-14 04:00N 41°15' W 072°34'4 7.9
2017-Nov-14 03:30N 41°14' W 072°39'4 7.0
2017-Nov-14 03:00N 41°13' W 072°44'  
2017-Nov-11 07:45N 41°13' W 072°48'2 9.7
2017-Nov-11 07:30N 41°13' W 072°45'510.0
2017-Nov-11 07:00N 41°14' W 072°39'4 8.0
2017-Nov-11 06:30N 41°16' W 072°34'0 0.1
2017-Nov-11 06:00N 41°16' W 072°34'0 1.0
2017-Nov-11 05:30N 41°15' W 072°34'1 1.2
2017-Nov-11 05:00N 41°15' W 072°34'1 1.8
2017-Nov-11 04:30N 41°15' W 072°36'1 2.4
2017-Nov-11 04:00N 41°14' W 072°36'2 3.2
2017-Nov-11 03:30N 41°13' W 072°34'1 1.3
2017-Nov-11 03:00N 41°13' W 072°33'2 3.8
2017-Nov-11 02:30N 41°15' W 072°34'2 4.2
2017-Nov-11 02:00N 41°14' W 072°37'510.1
2017-Nov-11 01:30N 41°13' W 072°43'49 2.0
2017-Nov-10 00:27N 40°53' W 073°43'4 9.5
2017-Nov-10 00:00N 40°50' W 073°47'3 7.1
2017-Nov-09 23:30N 40°48' W 073°51'4 7.1
2017-Nov-09 23:00N 40°47' W 073°55'2 4.9
2017-Nov-09 22:30N 40°45' W 073°57'3 6.0
2017-Nov-09 22:01N 40°43' W 073°58'3 5.8
2017-Nov-09 21:31N 40°41' W 074°01'4 8.8
2017-Nov-09 21:01N 40°39' W 074°07'2 3.5
2017-Nov-09 20:31N 40°38' W 074°09'0 0.0
2017-Nov-09 20:01N 40°38' W 074°09'0 0.0
2017-Nov-09 19:31N 40°38' W 074°09'0 0.0
2017-Nov-09 19:01N 40°38' W 074°09'0 0.1
2017-Nov-09 18:30N 40°38' W 074°09'2 4.1
2017-Nov-09 18:00N 40°39' W 074°12'0 0.0
2017-Nov-09 17:31N 40°39' W 074°12'0 0.2
2017-Nov-09 17:01N 40°39' W 074°11'0 0.0
2017-Nov-09 16:30N 40°39' W 074°11'0 0.0
2017-Nov-09 16:01N 40°39' W 074°11'0 0.0
2017-Nov-09 15:30N 40°39' W 074°11'0 0.0
2017-Nov-09 15:01N 40°39' W 074°11'0 0.0
2017-Nov-09 14:31N 40°39' W 074°11'1 2.6
2017-Nov-09 14:00N 40°39' W 074°10'1 1.4
2017-Nov-09 13:31N 40°39' W 074°11'1 1.4
2017-Nov-09 12:59N 40°39' W 074°12'0 0.0
2017-Nov-09 12:30N 40°39' W 074°12'0 0.0
2017-Nov-09 11:59N 40°39' W 074°12'0 0.0
2017-Nov-09 11:31N 40°39' W 074°12'0 0.0
2017-Nov-09 11:01N 40°39' W 074°12'0 0.1
2017-Nov-09 10:30N 40°39' W 074°11'0 0.4
2017-Nov-09 10:00N 40°38' W 074°12'0 0.0
2017-Nov-09 09:30N 40°38' W 074°12'0 0.0
2017-Nov-09 09:00N 40°38' W 074°12'0 0.0
2017-Nov-09 08:30N 40°38' W 074°12'0 0.0
2017-Nov-09 08:00N 40°38' W 074°12'0 0.0
2017-Nov-09 07:30N 40°38' W 074°12'0 0.0
2017-Nov-09 07:00N 40°38' W 074°12'0 0.0
2017-Nov-09 06:31N 40°38' W 074°12'0 0.0
2017-Nov-09 06:00N 40°38' W 074°12'0 0.2
2017-Nov-09 05:31N 40°38' W 074°12'3 6.6
2017-Nov-09 05:01N 40°39' W 074°07'3 5.9
2017-Nov-09 04:30N 40°39' W 074°03'2 3.2
2017-Nov-09 04:01N 40°41' W 074°02'2 4.9
2017-Nov-09 03:30N 40°42' W 073°60'2 3.7
2017-Nov-09 03:01N 40°43' W 073°58'2 4.6
2017-Nov-09 02:31N 40°46' W 073°57'2 3.2
2017-Nov-09 02:00N 40°47' W 073°56'2 4.2
2017-Nov-09 01:30N 40°48' W 073°54'3 5.6
2017-Nov-09 01:00N 40°48' W 073°50'  
Track history (hours):
 
Tides and Currents Weather Stations Pressure Air Temp Water Temp Dewpoint Dewpoint Depression Visibility Wind Speed Wind Dir Waves Ship Positions

Gulf Dawn

Owner: CHARPENTIER, KENNETH G, GRETNA, LA. More information available from US FCC via Universal Licensing System and Coast Guard Vessel Documentation Center.

Last reported at 2017-Nov-18 23:05 UTC. Time now 2017-Nov-19 18:20 UTC.
Position N 41°13' W 072°48'.

Length 26 m.

MMSI: 367005130.

Date/timePositionNaut miles runAvg speedWind from/ knotsBaromVisibWave heightAir tempDewpointWater temp
2017-Nov-18 23:05N 41°13' W 072°48'1 5.4
2017-Nov-18 22:59N 41°13' W 072°47'2 5.2
2017-Nov-18 22:30N 41°13' W 072°44'3 5.0
2017-Nov-18 22:00N 41°14' W 072°40'2 4.8
2017-Nov-18 21:30N 41°14' W 072°37'2 4.2
2017-Nov-18 21:00N 41°15' W 072°35'1 2.3
2017-Nov-18 20:30N 41°16' W 072°34'0 0.1
2017-Nov-18 20:00N 41°16' W 072°34'2 3.0
2017-Nov-18 19:30N 41°15' W 072°35'5 9.4
2017-Nov-18 19:00N 41°13' W 072°42'7 0.7
2017-Nov-18 09:23N 41°11' W 072°50'3 8.2
2017-Nov-18 09:01N 41°12' W 072°47'4 8.0
2017-Nov-18 08:30N 41°14' W 072°41'4 7.7
2017-Nov-18 08:00N 41°14' W 072°36'2 4.6
2017-Nov-18 07:30N 41°16' W 072°34'0 0.0
2017-Nov-18 07:00N 41°16' W 072°34'0 0.0
2017-Nov-18 06:30N 41°16' W 072°34'0 0.0
2017-Nov-18 06:00N 41°16' W 072°34'0 0.0
2017-Nov-18 05:30N 41°16' W 072°34'0 0.0
2017-Nov-18 05:00N 41°16' W 072°34'0 0.0
2017-Nov-18 04:30N 41°16' W 072°34'0 0.0
2017-Nov-18 04:00N 41°16' W 072°34'0 0.0
2017-Nov-18 03:30N 41°16' W 072°34'0 0.0
2017-Nov-18 03:00N 41°16' W 072°34'0 0.0
2017-Nov-18 02:30N 41°16' W 072°34'0 0.0
2017-Nov-18 02:00N 41°16' W 072°34'0 0.0
2017-Nov-18 01:30N 41°16' W 072°34'0 0.0
2017-Nov-18 01:00N 41°16' W 072°34'0 0.0
2017-Nov-18 00:30N 41°16' W 072°34'0 0.0
2017-Nov-18 00:00N 41°16' W 072°34'0 0.0
2017-Nov-17 23:30N 41°16' W 072°34'0 0.0
2017-Nov-17 23:00N 41°16' W 072°34'0 0.0
2017-Nov-17 22:29N 41°16' W 072°34'0 0.0
2017-Nov-17 21:58N 41°16' W 072°34'0 0.0
2017-Nov-17 21:27N 41°16' W 072°34'0 0.0
2017-Nov-17 21:00N 41°16' W 072°34'0 0.0
2017-Nov-17 20:30N 41°16' W 072°34'0 0.0
2017-Nov-17 19:59N 41°16' W 072°34'0 0.0
2017-Nov-17 19:30N 41°16' W 072°34'0 0.4
2017-Nov-17 19:00N 41°16' W 072°34'0 0.4
2017-Nov-17 18:30N 41°16' W 072°34'0 0.0
2017-Nov-17 17:58N 41°16' W 072°34'0 0.0
2017-Nov-17 17:30N 41°16' W 072°34'0 0.0
2017-Nov-17 17:00N 41°16' W 072°34'0 0.0
2017-Nov-17 16:29N 41°16' W 072°34'0 0.0
2017-Nov-17 15:55N 41°16' W 072°34'0 0.0
2017-Nov-17 15:30N 41°16' W 072°34'0 0.0
2017-Nov-17 14:59N 41°16' W 072°34'0 0.0
2017-Nov-17 14:29N 41°16' W 072°34'0 0.0
2017-Nov-17 13:58N 41°16' W 072°34'0 0.0
2017-Nov-17 13:28N 41°16' W 072°34'0 0.0
2017-Nov-17 13:00N 41°16' W 072°34'0 0.0
2017-Nov-17 12:30N 41°16' W 072°34'0 0.0
2017-Nov-17 12:00N 41°16' W 072°34'0 0.0
2017-Nov-17 11:30N 41°16' W 072°34'0 0.0
2017-Nov-17 11:00N 41°16' W 072°34'0 0.0
2017-Nov-17 10:30N 41°16' W 072°34'0 0.0
2017-Nov-17 10:00N 41°16' W 072°34'0 0.0
2017-Nov-17 09:30N 41°16' W 072°34'0 0.0
2017-Nov-17 09:00N 41°16' W 072°34'0 0.0
2017-Nov-17 08:30N 41°16' W 072°34'0 0.3
2017-Nov-17 08:00N 41°16' W 072°34'0 0.3
2017-Nov-17 07:30N 41°16' W 072°34'0 0.0
2017-Nov-17 07:00N 41°16' W 072°34'0 0.0
2017-Nov-17 06:30N 41°16' W 072°34'0 0.0
2017-Nov-17 05:59N 41°16' W 072°34'0 0.0
2017-Nov-17 05:30N 41°16' W 072°34'0 0.0
2017-Nov-17 05:00N 41°16' W 072°34'0 0.0
2017-Nov-17 04:30N 41°16' W 072°34'0 0.0
2017-Nov-17 04:00N 41°16' W 072°34'0 0.0
2017-Nov-17 03:30N 41°16' W 072°34'0 0.0
2017-Nov-17 03:00N 41°16' W 072°34'0 0.2
2017-Nov-17 02:30N 41°16' W 072°34'0 0.2
2017-Nov-17 02:00N 41°16' W 072°34'0 0.0
2017-Nov-17 01:30N 41°16' W 072°34'0 0.0
2017-Nov-17 01:00N 41°16' W 072°34'0 0.0
2017-Nov-17 00:30N 41°16' W 072°34'0 0.0
2017-Nov-17 00:00N 41°16' W 072°34'0 0.0
2017-Nov-16 23:30N 41°16' W 072°34'0 0.0
2017-Nov-16 23:00N 41°16' W 072°34'0 0.0
2017-Nov-16 22:30N 41°16' W 072°34'0 0.1
2017-Nov-16 22:00N 41°16' W 072°34'1 1.2
2017-Nov-16 21:30N 41°15' W 072°34'0 0.7
2017-Nov-16 21:00N 41°15' W 072°34'0 0.4
2017-Nov-16 20:30N 41°16' W 072°34'1 2.5
2017-Nov-16 20:00N 41°15' W 072°35'1 1.8
2017-Nov-16 19:30N 41°15' W 072°34'0 0.6
2017-Nov-16 19:00N 41°15' W 072°34'3 5.2
2017-Nov-16 18:30N 41°14' W 072°37'7 0.3
2017-Nov-15 16:50N 41°13' W 072°46'2 5.1
2017-Nov-15 16:30N 41°13' W 072°44'2 5.0
2017-Nov-15 16:00N 41°14' W 072°41'3 5.2
2017-Nov-15 15:31N 41°14' W 072°37'3 5.2
2017-Nov-15 15:00N 41°16' W 072°34'0 0.5
2017-Nov-15 14:30N 41°16' W 072°34'0 0.2
2017-Nov-15 14:00N 41°16' W 072°34'0 0.0
2017-Nov-15 06:58N 41°16' W 072°34'0 0.0
2017-Nov-15 06:30N 41°16' W 072°34'0 0.0
2017-Nov-15 06:00N 41°16' W 072°34'0 0.0
2017-Nov-15 05:30N 41°16' W 072°34'0 0.0
2017-Nov-15 05:00N 41°16' W 072°34'0 0.2
2017-Nov-15 04:30N 41°16' W 072°34'0 0.3
2017-Nov-15 04:00N 41°16' W 072°34'1 1.6
2017-Nov-15 03:30N 41°15' W 072°34'2 4.9
2017-Nov-15 03:00N 41°14' W 072°37'2 4.8
2017-Nov-15 02:30N 41°14' W 072°41'2 4.5
2017-Nov-15 02:00N 41°13' W 072°44'0 0.0
2017-Nov-14 11:45N 41°13' W 072°43'2 8.2
2017-Nov-14 11:30N 41°14' W 072°41'4 8.0
2017-Nov-14 10:59N 41°15' W 072°36'1 2.7
2017-Nov-14 10:30N 41°16' W 072°34'0 0.0
2017-Nov-14 10:00N 41°16' W 072°34'0 0.0
2017-Nov-14 09:30N 41°16' W 072°34'0 0.0
2017-Nov-14 09:00N 41°16' W 072°34'0 0.0
2017-Nov-14 08:30N 41°16' W 072°34'0 0.0
2017-Nov-14 08:00N 41°16' W 072°34'0 0.0
2017-Nov-14 07:30N 41°16' W 072°34'0 0.0
2017-Nov-14 07:00N 41°16' W 072°34'0 0.0
2017-Nov-14 06:30N 41°16' W 072°34'0 0.0
2017-Nov-14 06:00N 41°16' W 072°34'0 0.0
2017-Nov-14 05:30N 41°16' W 072°34'0 0.0
2017-Nov-14 05:00N 41°16' W 072°34'0 0.2
2017-Nov-14 04:30N 41°16' W 072°34'1 1.7
2017-Nov-14 04:00N 41°15' W 072°34'4 7.9
2017-Nov-14 03:30N 41°14' W 072°39'4 7.0
2017-Nov-14 03:00N 41°13' W 072°44'  
2017-Nov-11 07:45N 41°13' W 072°48'2 9.7
2017-Nov-11 07:30N 41°13' W 072°45'510.0
2017-Nov-11 07:00N 41°14' W 072°39'4 8.0
2017-Nov-11 06:30N 41°16' W 072°34'0 0.1
2017-Nov-11 06:00N 41°16' W 072°34'0 1.0
2017-Nov-11 05:30N 41°15' W 072°34'1 1.2
2017-Nov-11 05:00N 41°15' W 072°34'1 1.8
2017-Nov-11 04:30N 41°15' W 072°36'1 2.4
2017-Nov-11 04:00N 41°14' W 072°36'2 3.2
2017-Nov-11 03:30N 41°13' W 072°34'1 1.3
2017-Nov-11 03:00N 41°13' W 072°33'2 3.8
2017-Nov-11 02:30N 41°15' W 072°34'2 4.2
2017-Nov-11 02:00N 41°14' W 072°37'510.1
2017-Nov-11 01:30N 41°13' W 072°43'49 2.0
2017-Nov-10 00:27N 40°53' W 073°43'4 9.5
2017-Nov-10 00:00N 40°50' W 073°47'3 7.1
2017-Nov-09 23:30N 40°48' W 073°51'4 7.1
2017-Nov-09 23:00N 40°47' W 073°55'2 4.9
2017-Nov-09 22:30N 40°45' W 073°57'3 6.0
2017-Nov-09 22:01N 40°43' W 073°58'3 5.8
2017-Nov-09 21:31N 40°41' W 074°01'4 8.8
2017-Nov-09 21:01N 40°39' W 074°07'2 3.5
2017-Nov-09 20:31N 40°38' W 074°09'0 0.0
2017-Nov-09 20:01N 40°38' W 074°09'0 0.0
2017-Nov-09 19:31N 40°38' W 074°09'0 0.0
2017-Nov-09 19:01N 40°38' W 074°09'0 0.1
2017-Nov-09 18:30N 40°38' W 074°09'2 4.1
2017-Nov-09 18:00N 40°39' W 074°12'0 0.0
2017-Nov-09 17:31N 40°39' W 074°12'0 0.2
2017-Nov-09 17:01N 40°39' W 074°11'0 0.0
2017-Nov-09 16:30N 40°39' W 074°11'0 0.0
2017-Nov-09 16:01N 40°39' W 074°11'0 0.0
2017-Nov-09 15:30N 40°39' W 074°11'0 0.0
2017-Nov-09 15:01N 40°39' W 074°11'0 0.0
2017-Nov-09 14:31N 40°39' W 074°11'1 2.6
2017-Nov-09 14:00N 40°39' W 074°10'1 1.4
2017-Nov-09 13:31N 40°39' W 074°11'1 1.4
2017-Nov-09 12:59N 40°39' W 074°12'0 0.0
2017-Nov-09 12:30N 40°39' W 074°12'0 0.0
2017-Nov-09 11:59N 40°39' W 074°12'0 0.0
2017-Nov-09 11:31N 40°39' W 074°12'0 0.0
2017-Nov-09 11:01N 40°39' W 074°12'0 0.1
2017-Nov-09 10:30N 40°39' W 074°11'0 0.4
2017-Nov-09 10:00N 40°38' W 074°12'0 0.0
2017-Nov-09 09:30N 40°38' W 074°12'0 0.0
2017-Nov-09 09:00N 40°38' W 074°12'0 0.0
2017-Nov-09 08:30N 40°38' W 074°12'0 0.0
2017-Nov-09 08:00N 40°38' W 074°12'0 0.0
2017-Nov-09 07:30N 40°38' W 074°12'0 0.0
2017-Nov-09 07:00N 40°38' W 074°12'0 0.0
2017-Nov-09 06:31N 40°38' W 074°12'0 0.0
2017-Nov-09 06:00N 40°38' W 074°12'0 0.2
2017-Nov-09 05:31N 40°38' W 074°12'3 6.6
2017-Nov-09 05:01N 40°39' W 074°07'3 5.9
2017-Nov-09 04:30N 40°39' W 074°03'2 3.2
2017-Nov-09 04:01N 40°41' W 074°02'2 4.9
2017-Nov-09 03:30N 40°42' W 073°60'2 3.7
2017-Nov-09 03:01N 40°43' W 073°58'2 4.6
2017-Nov-09 02:31N 40°46' W 073°57'2 3.2
2017-Nov-09 02:00N 40°47' W 073°56'2 4.2
2017-Nov-09 01:30N 40°48' W 073°54'3 5.6
2017-Nov-09 01:00N 40°48' W 073°50'  

Dump ship's entire track history